createdAt,value
2023-05-09T00:00:07.018Z,6.40
2023-05-09T00:00:37.929Z,6.50
2023-05-09T00:01:08.836Z,7.00
2023-05-09T00:01:39.765Z,6.20
2023-05-09T00:02:10.656Z,7.20
2023-05-09T00:02:41.718Z,6.50
2023-05-09T00:03:12.307Z,7.30
2023-05-09T00:03:42.753Z,6.70
2023-05-09T00:04:13.802Z,6.10
2023-05-09T00:04:44.484Z,6.80
2023-05-09T00:05:15.545Z,7.40
2023-05-09T00:05:45.737Z,6.40
2023-05-09T00:06:16.602Z,6.70
2023-05-09T00:06:47.502Z,6.90
2023-05-09T00:07:18.044Z,6.40
2023-05-09T00:07:48.992Z,6.50
2023-05-09T00:08:19.872Z,7.60
2023-05-09T00:08:50.729Z,6.80
2023-05-09T00:09:21.712Z,6.20
2023-05-09T00:09:52.747Z,6.60
2023-05-09T00:10:23.188Z,6.50
2023-05-09T00:10:54.153Z,6.70
2023-05-09T00:11:25.137Z,6.10
2023-05-09T00:11:56.100Z,7.20
2023-05-09T00:12:26.981Z,6.20
2023-05-09T00:12:57.908Z,6.30
2023-05-09T00:13:28.818Z,7.00
2023-05-09T00:13:59.707Z,6.30
2023-05-09T00:14:30.688Z,7.60
2023-05-09T00:15:01.698Z,6.70
2023-05-09T00:15:32.164Z,7.00
2023-05-09T00:16:03.171Z,6.90
2023-05-09T00:16:33.697Z,6.40
2023-05-09T00:17:04.159Z,6.80
2023-05-09T00:17:35.142Z,6.50
2023-05-09T00:18:06.110Z,7.20
2023-05-09T00:18:36.992Z,6.70
2023-05-09T00:19:07.883Z,6.60
2023-05-09T00:19:38.751Z,7.20
2023-05-09T00:20:09.675Z,7.00
2023-05-09T00:20:40.666Z,6.60
2023-05-09T00:21:11.053Z,6.60
2023-05-09T00:21:42.237Z,6.90
2023-05-09T00:22:12.678Z,6.60
2023-05-09T00:22:43.819Z,6.40
2023-05-09T00:23:14.336Z,6.90
2023-05-09T00:23:44.969Z,6.70
2023-05-09T00:24:15.466Z,7.10
2023-05-09T00:24:46.192Z,7.30
2023-05-09T00:25:16.913Z,6.80
2023-05-09T00:25:47.237Z,7.30
2023-05-09T00:26:17.600Z,8.00
2023-05-09T00:26:48.481Z,6.90
2023-05-09T00:27:19.390Z,7.40
2023-05-09T00:27:50.297Z,6.90
2023-05-09T00:28:21.192Z,6.60
2023-05-09T00:28:52.526Z,7.00
2023-05-09T00:29:23.047Z,7.30
2023-05-09T00:29:53.692Z,7.50
2023-05-09T00:30:24.208Z,6.70
2023-05-09T00:30:54.886Z,7.60
2023-05-09T00:31:25.431Z,7.20
2023-05-09T00:31:56.258Z,6.70
2023-05-09T00:32:26.798Z,6.90
2023-05-09T00:32:57.431Z,7.20
2023-05-09T00:33:27.855Z,6.60
2023-05-09T00:33:58.752Z,7.00
2023-05-09T00:34:29.636Z,7.00
2023-05-09T00:35:00.525Z,7.10
2023-05-09T00:35:31.414Z,7.00
2023-05-09T00:36:02.633Z,7.70
2023-05-09T00:36:33.075Z,7.40
2023-05-09T00:37:04.037Z,7.70
2023-05-09T00:37:34.976Z,7.80
2023-05-09T00:38:05.975Z,8.00
2023-05-09T00:38:36.949Z,6.90
2023-05-09T00:39:07.692Z,6.80
2023-05-09T00:39:38.092Z,6.60
2023-05-09T00:40:08.965Z,6.90
2023-05-09T00:40:39.927Z,7.70
2023-05-09T00:41:10.833Z,7.10
2023-05-09T00:41:41.728Z,7.10
2023-05-09T00:42:12.601Z,7.10
2023-05-09T00:42:43.537Z,6.90
2023-05-09T00:43:14.722Z,8.20
2023-05-09T00:43:45.229Z,7.20
2023-05-09T00:44:16.393Z,7.40
2023-05-09T00:44:46.899Z,7.30
2023-05-09T00:45:17.648Z,6.90
2023-05-09T00:45:48.057Z,7.20
2023-05-09T00:46:19.026Z,7.20
2023-05-09T00:46:49.955Z,7.10
2023-05-09T00:47:20.857Z,7.00
2023-05-09T00:47:51.775Z,7.50
2023-05-09T00:48:22.701Z,7.20
2023-05-09T00:48:53.774Z,7.00
2023-05-09T00:49:24.242Z,7.50
2023-05-09T00:49:55.161Z,7.30
2023-05-09T00:50:26.105Z,7.90
2023-05-09T00:50:57.118Z,7.50
2023-05-09T00:51:27.707Z,7.70
2023-05-09T00:51:58.165Z,7.10
2023-05-09T00:52:29.065Z,7.90
2023-05-09T00:52:59.928Z,7.80
2023-05-09T00:53:30.842Z,7.60
2023-05-09T00:54:01.730Z,7.60
2023-05-09T00:54:32.633Z,7.60
2023-05-09T00:55:03.575Z,7.30
2023-05-09T00:55:34.455Z,7.30
2023-05-09T00:56:05.573Z,7.40
2023-05-09T00:56:36.059Z,7.70
2023-05-09T00:57:07.206Z,7.50
2023-05-09T00:57:37.710Z,7.30
2023-05-09T00:58:08.374Z,7.10
2023-05-09T00:58:38.768Z,7.40
2023-05-09T00:59:09.638Z,7.40
2023-05-09T00:59:40.548Z,6.70
2023-05-09T01:00:11.456Z,7.80
2023-05-09T01:00:42.316Z,7.90
2023-05-09T01:01:13.241Z,7.80
2023-05-09T01:01:44.313Z,8.10
2023-05-09T01:02:14.797Z,7.70
2023-05-09T01:02:45.811Z,7.90
2023-05-09T01:03:16.405Z,7.10
2023-05-09T01:03:47.256Z,7.30
2023-05-09T01:04:17.789Z,7.30
2023-05-09T01:04:48.287Z,8.00
2023-05-09T01:05:19.165Z,8.10
2023-05-09T01:05:50.048Z,8.70
2023-05-09T01:06:20.918Z,7.90
2023-05-09T01:06:51.929Z,8.40
2023-05-09T01:07:22.357Z,7.60
2023-05-09T01:07:53.262Z,8.70
2023-05-09T01:08:24.185Z,8.30
2023-05-09T01:08:55.353Z,7.90
2023-05-09T01:09:25.891Z,8.10
2023-05-09T01:09:56.633Z,8.20
2023-05-09T01:10:27.153Z,8.00
2023-05-09T01:10:58.373Z,7.30
2023-05-09T01:11:28.855Z,7.10
2023-05-09T01:11:59.351Z,7.30
2023-05-09T01:12:30.261Z,8.00
2023-05-09T01:13:01.206Z,7.60
2023-05-09T01:13:32.122Z,7.20
2023-05-09T01:14:03.031Z,7.60
2023-05-09T01:14:33.923Z,7.80
2023-05-09T01:15:04.850Z,6.90
2023-05-09T01:15:35.838Z,7.50
2023-05-09T01:16:06.468Z,8.00
2023-05-09T01:16:36.952Z,8.10
2023-05-09T01:17:07.906Z,8.30
2023-05-09T01:17:38.861Z,7.50
2023-05-09T01:18:09.834Z,7.60
2023-05-09T01:18:40.769Z,7.60
2023-05-09T01:19:11.717Z,7.10
2023-05-09T01:19:42.617Z,7.50
2023-05-09T01:20:13.501Z,7.80
2023-05-09T01:20:44.376Z,7.70
2023-05-09T01:21:15.245Z,7.70
2023-05-09T01:21:46.293Z,7.60
2023-05-09T01:22:16.854Z,7.10
2023-05-09T01:22:47.295Z,7.80
2023-05-09T01:23:18.221Z,7.30
2023-05-09T01:23:49.259Z,8.10
2023-05-09T01:24:19.803Z,7.70
2023-05-09T01:24:50.179Z,7.90
2023-05-09T01:25:21.094Z,7.70
2023-05-09T01:25:51.977Z,7.50
2023-05-09T01:26:22.848Z,7.30
2023-05-09T01:26:53.738Z,7.60
2023-05-09T01:27:24.656Z,7.70
2023-05-09T01:27:55.524Z,7.10
2023-05-09T01:28:26.427Z,7.30
2023-05-09T01:28:57.367Z,7.30
2023-05-09T01:29:28.325Z,7.30
2023-05-09T01:29:59.461Z,7.60
2023-05-09T01:30:29.996Z,7.70
2023-05-09T01:31:00.432Z,7.30
2023-05-09T01:31:31.416Z,7.00
2023-05-09T01:32:02.346Z,8.00
2023-05-09T01:32:33.441Z,7.90
2023-05-09T01:33:03.958Z,7.20
2023-05-09T01:33:34.354Z,7.10
2023-05-09T01:34:05.407Z,7.40
2023-05-09T01:34:35.924Z,7.00
2023-05-09T01:35:06.437Z,7.60
2023-05-09T01:35:37.401Z,7.40
2023-05-09T01:36:08.389Z,7.00
2023-05-09T01:36:39.336Z,7.70
2023-05-09T01:37:10.257Z,6.70
2023-05-09T01:37:41.281Z,7.80
2023-05-09T01:38:11.677Z,7.10
2023-05-09T01:38:42.559Z,7.80
2023-05-09T01:39:13.432Z,7.00
2023-05-09T01:39:44.349Z,7.50
2023-05-09T01:40:15.216Z,7.30
2023-05-09T01:40:46.141Z,7.70
2023-05-09T01:41:17.265Z,7.20
2023-05-09T01:41:47.793Z,8.00
2023-05-09T01:42:18.505Z,7.40
2023-05-09T01:42:49.008Z,8.10
2023-05-09T01:43:20.171Z,7.20
2023-05-09T01:43:50.832Z,7.30
2023-05-09T01:44:21.252Z,7.50
2023-05-09T01:44:52.135Z,7.00
2023-05-09T01:45:23.029Z,7.80
2023-05-09T01:45:53.940Z,7.40
2023-05-09T01:46:24.854Z,6.80
2023-05-09T01:46:55.871Z,6.80
2023-05-09T01:47:26.958Z,7.00
2023-05-09T01:47:57.513Z,7.10
2023-05-09T01:48:28.026Z,6.90
2023-05-09T01:48:58.990Z,6.50
2023-05-09T01:49:29.959Z,6.40
2023-05-09T01:50:00.679Z,6.90
2023-05-09T01:50:31.075Z,6.60
2023-05-09T01:51:01.950Z,7.30
2023-05-09T01:51:32.848Z,7.10
2023-05-09T01:52:03.750Z,7.40
2023-05-09T01:52:34.646Z,6.80
2023-05-09T01:53:05.789Z,7.20
2023-05-09T01:53:36.339Z,6.90
2023-05-09T01:54:06.798Z,6.80
2023-05-09T01:54:37.817Z,6.90
2023-05-09T01:55:08.269Z,7.40
2023-05-09T01:55:39.224Z,7.70
2023-05-09T01:56:10.179Z,7.00
2023-05-09T01:56:41.118Z,7.40
2023-05-09T01:57:12.024Z,6.70
2023-05-09T01:57:42.909Z,7.10
2023-05-09T01:58:13.773Z,7.80
2023-05-09T01:58:44.686Z,7.50
2023-05-09T01:59:15.567Z,7.00
2023-05-09T01:59:46.466Z,6.90
2023-05-09T02:00:17.480Z,6.70
2023-05-09T02:00:48.179Z,7.50
2023-05-09T02:01:18.832Z,7.30
2023-05-09T02:01:49.497Z,7.20
2023-05-09T02:02:20.147Z,6.80
2023-05-09T02:02:51.035Z,7.30
2023-05-09T02:03:21.628Z,7.00
2023-05-09T02:03:52.020Z,6.70
2023-05-09T02:04:22.905Z,7.20
2023-05-09T02:04:53.779Z,6.80
2023-05-09T02:05:24.736Z,6.90
2023-05-09T02:05:55.606Z,6.60
2023-05-09T02:06:26.564Z,6.70
2023-05-09T02:06:57.710Z,7.00
2023-05-09T02:07:28.203Z,7.90
2023-05-09T02:07:59.381Z,7.10
2023-05-09T02:08:30.032Z,7.50
2023-05-09T02:09:00.991Z,7.00
2023-05-09T02:09:31.479Z,6.60
2023-05-09T02:10:02.365Z,6.60
2023-05-09T02:10:33.266Z,7.00
2023-05-09T02:11:04.141Z,7.10
2023-05-09T02:11:35.078Z,7.30
2023-05-09T02:12:05.994Z,7.20
2023-05-09T02:12:36.872Z,6.90
2023-05-09T02:13:08.122Z,8.30
2023-05-09T02:13:38.555Z,6.90
2023-05-09T02:14:09.485Z,6.80
2023-05-09T02:14:40.426Z,6.90
2023-05-09T02:15:11.373Z,7.50
2023-05-09T02:15:42.259Z,7.30
2023-05-09T02:16:13.214Z,7.10
2023-05-09T02:16:44.260Z,6.70
2023-05-09T02:17:14.713Z,6.40
2023-05-09T02:17:45.657Z,6.60
2023-05-09T02:18:16.553Z,6.90
2023-05-09T02:18:47.589Z,6.30
2023-05-09T02:19:18.025Z,6.90
2023-05-09T02:19:48.898Z,6.80
2023-05-09T02:20:19.886Z,6.30
2023-05-09T02:20:51.081Z,7.00
2023-05-09T02:21:21.595Z,6.00
2023-05-09T02:21:52.692Z,6.70
2023-05-09T02:22:23.096Z,6.10
2023-05-09T02:22:53.981Z,6.80
2023-05-09T02:23:24.874Z,6.50
2023-05-09T02:23:55.918Z,6.50
2023-05-09T02:24:26.305Z,6.40
2023-05-09T02:24:57.171Z,6.40
2023-05-09T02:25:28.135Z,6.40
2023-05-09T02:25:59.024Z,6.30
2023-05-09T02:26:30.180Z,6.70
2023-05-09T02:27:00.698Z,6.60
2023-05-09T02:27:31.836Z,6.80
2023-05-09T02:28:02.338Z,6.50
2023-05-09T02:28:33.011Z,6.90
2023-05-09T02:29:03.416Z,6.00
2023-05-09T02:29:34.292Z,6.20
2023-05-09T02:30:05.188Z,6.70
2023-05-09T02:30:36.078Z,6.00
2023-05-09T02:31:07.040Z,6.50
2023-05-09T02:31:37.950Z,6.50
2023-05-09T02:32:09.054Z,6.70
2023-05-09T02:32:39.633Z,6.50
2023-05-09T02:33:10.137Z,7.00
2023-05-09T02:33:41.124Z,6.90
2023-05-09T02:34:12.167Z,5.80
2023-05-09T02:34:42.608Z,5.90
2023-05-09T02:35:13.617Z,5.70
2023-05-09T02:35:44.301Z,6.80
2023-05-09T02:36:15.181Z,6.20
2023-05-09T02:36:46.116Z,6.60
2023-05-09T02:37:17.003Z,5.60
2023-05-09T02:37:47.876Z,5.80
2023-05-09T02:38:18.746Z,5.80
2023-05-09T02:38:49.664Z,5.70
2023-05-09T02:39:20.724Z,5.80
2023-05-09T02:39:51.150Z,6.30
2023-05-09T02:40:22.103Z,6.10
2023-05-09T02:40:53.122Z,6.10
2023-05-09T02:41:23.496Z,6.30
2023-05-09T02:41:54.386Z,5.90
2023-05-09T02:42:25.406Z,6.50
2023-05-09T02:42:55.915Z,6.10
2023-05-09T02:43:26.819Z,6.30
2023-05-09T02:43:57.759Z,6.80
2023-05-09T02:44:28.632Z,6.40
2023-05-09T02:44:59.513Z,6.30
2023-05-09T02:45:30.454Z,5.40
2023-05-09T02:46:01.496Z,5.30
2023-05-09T02:46:32.099Z,6.00
2023-05-09T02:47:02.824Z,5.90
2023-05-09T02:47:33.331Z,5.50
2023-05-09T02:48:06.238Z,5.80
2023-05-09T02:48:35.139Z,6.10
2023-05-09T02:49:06.079Z,5.90
2023-05-09T02:49:36.938Z,6.50
2023-05-09T02:50:07.801Z,5.20
2023-05-09T02:50:38.732Z,5.70
2023-05-09T02:51:09.734Z,6.20
2023-05-09T02:51:40.701Z,6.00
2023-05-09T02:52:11.617Z,5.70
2023-05-09T02:52:42.635Z,6.40
2023-05-09T02:53:13.108Z,5.40
2023-05-09T02:53:44.086Z,5.70
2023-05-09T02:54:14.994Z,6.20
2023-05-09T02:54:45.995Z,5.40
2023-05-09T02:55:17.171Z,5.90
2023-05-09T02:55:47.534Z,5.60
2023-05-09T02:56:18.418Z,5.30
2023-05-09T02:56:49.390Z,5.90
2023-05-09T02:57:20.341Z,6.20
2023-05-09T02:57:58.936Z,5.70
2023-05-09T02:58:23.320Z,6.30
2023-05-09T02:58:52.784Z,5.50
2023-05-09T02:59:23.825Z,5.90
2023-05-09T02:59:54.259Z,5.90
2023-05-09T03:00:25.132Z,5.70
2023-05-09T03:00:56.003Z,5.50
2023-05-09T03:01:26.914Z,5.70
2023-05-09T03:01:57.812Z,5.90
2023-05-09T03:02:28.784Z,5.70
2023-05-09T03:02:59.806Z,6.10
2023-05-09T03:03:30.445Z,6.10
2023-05-09T03:04:01.050Z,6.00
2023-05-09T03:04:31.502Z,5.70
2023-05-09T03:05:02.458Z,5.90
2023-05-09T03:05:33.416Z,5.90
2023-05-09T03:06:04.412Z,6.30
2023-05-09T03:06:35.291Z,5.70
2023-05-09T03:07:06.155Z,6.50
2023-05-09T03:07:37.022Z,6.70
2023-05-09T03:08:07.918Z,6.30
2023-05-09T03:08:38.841Z,6.20
2023-05-09T03:09:09.700Z,5.80
2023-05-09T03:09:41.282Z,5.20
2023-05-09T03:10:11.921Z,5.20
2023-05-09T03:10:42.471Z,6.00
2023-05-09T03:11:13.138Z,6.00
2023-05-09T03:11:43.649Z,5.60
2023-05-09T03:12:14.302Z,5.60
2023-05-09T03:12:44.855Z,6.20
2023-05-09T03:13:15.364Z,5.60
2023-05-09T03:13:45.761Z,6.10
2023-05-09T03:14:16.693Z,5.70
2023-05-09T03:14:47.562Z,5.90
2023-05-09T03:15:18.451Z,6.30
2023-05-09T03:15:49.374Z,6.00
2023-05-09T03:16:20.742Z,6.40
2023-05-09T03:16:51.307Z,5.20
2023-05-09T03:17:22.481Z,5.80
2023-05-09T03:17:53.008Z,5.90
2023-05-09T03:18:23.730Z,6.10
2023-05-09T03:18:54.277Z,6.10
2023-05-09T03:19:24.944Z,6.10
2023-05-09T03:19:55.367Z,6.60
2023-05-09T03:20:26.234Z,6.50
2023-05-09T03:20:57.113Z,6.20
2023-05-09T03:21:28.002Z,5.90
2023-05-09T03:21:58.907Z,6.50
2023-05-09T03:22:29.784Z,6.00
2023-05-09T03:23:00.798Z,6.70
2023-05-09T03:23:31.723Z,5.80
2023-05-09T03:24:02.762Z,6.00
2023-05-09T03:24:33.439Z,6.60
2023-05-09T03:25:04.031Z,6.40
2023-05-09T03:25:34.934Z,6.80
2023-05-09T03:26:05.439Z,6.70
2023-05-09T03:26:36.309Z,6.70
2023-05-09T03:27:07.193Z,6.40
2023-05-09T03:27:38.121Z,5.90
2023-05-09T03:28:09.052Z,6.40
2023-05-09T03:28:39.941Z,6.60
2023-05-09T03:29:11.004Z,6.50
2023-05-09T03:29:41.432Z,6.70
2023-05-09T03:30:12.398Z,6.60
2023-05-09T03:30:43.549Z,6.40
2023-05-09T03:31:14.116Z,6.10
2023-05-09T03:31:44.886Z,6.40
2023-05-09T03:32:15.389Z,6.40
2023-05-09T03:32:46.138Z,6.00
2023-05-09T03:33:16.575Z,5.80
2023-05-09T03:33:47.448Z,6.30
2023-05-09T03:34:18.269Z,6.30
2023-05-09T03:34:49.114Z,6.70
2023-05-09T03:35:19.985Z,6.30
2023-05-09T03:35:50.799Z,6.50
2023-05-09T03:36:21.688Z,6.10
2023-05-09T03:36:52.816Z,6.30
2023-05-09T03:37:24.375Z,6.60
2023-05-09T03:37:54.417Z,6.70
2023-05-09T03:38:24.872Z,6.20
2023-05-09T03:38:56.030Z,6.40
2023-05-09T03:39:26.380Z,6.80
2023-05-09T03:39:57.235Z,6.40
2023-05-09T03:40:28.056Z,6.60
2023-05-09T03:40:59.027Z,5.70
2023-05-09T03:41:29.862Z,6.10
2023-05-09T03:42:00.688Z,5.80
2023-05-09T03:42:31.611Z,6.10
2023-05-09T03:43:02.567Z,5.90
2023-05-09T03:43:33.560Z,5.90
2023-05-09T03:44:04.455Z,6.30
2023-05-09T03:44:35.361Z,6.90
2023-05-09T03:45:06.330Z,6.10
2023-05-09T03:45:37.161Z,6.80
2023-05-09T03:46:08.024Z,6.30
2023-05-09T03:46:38.994Z,6.80
2023-05-09T03:47:09.844Z,6.30
2023-05-09T03:47:40.759Z,6.20
2023-05-09T03:48:11.827Z,6.10
2023-05-09T03:48:42.169Z,6.60
2023-05-09T03:49:13.134Z,6.30
2023-05-09T03:49:44.206Z,6.70
2023-05-09T03:50:14.668Z,6.00
2023-05-09T03:50:45.807Z,5.80
2023-05-09T03:51:16.255Z,5.90
2023-05-09T03:51:47.078Z,6.70
2023-05-09T03:52:17.924Z,6.10
2023-05-09T03:52:50.092Z,6.40
2023-05-09T03:54:00.486Z,5.90
2023-05-09T03:54:31.336Z,6.40
2023-05-09T03:55:02.155Z,6.80
2023-05-09T03:55:33.086Z,6.20
2023-05-09T03:56:04.106Z,6.50
2023-05-09T03:56:34.844Z,6.70
2023-05-09T03:57:05.873Z,6.40
2023-05-09T03:57:36.318Z,6.90
2023-05-09T03:58:07.134Z,6.50
2023-05-09T03:58:37.964Z,6.50
2023-05-09T03:59:08.851Z,6.00
2023-05-09T03:59:39.691Z,6.20
2023-05-09T04:00:10.511Z,6.50
2023-05-09T04:00:41.312Z,6.70
2023-05-09T04:01:12.117Z,6.60
2023-05-09T04:01:43.358Z,6.30
2023-05-09T04:02:13.942Z,6.70
2023-05-09T04:02:44.677Z,6.40
2023-05-09T04:03:15.306Z,6.80
2023-05-09T04:03:46.084Z,7.20
2023-05-09T04:04:16.425Z,6.20
2023-05-09T04:04:47.522Z,6.60
2023-05-09T04:05:18.003Z,6.80
2023-05-09T04:05:48.419Z,7.60
2023-05-09T04:06:19.259Z,6.50
2023-05-09T04:06:50.109Z,6.30
2023-05-09T04:07:21.006Z,6.40
2023-05-09T04:07:51.894Z,6.10
2023-05-09T04:08:22.837Z,6.70
2023-05-09T04:08:53.712Z,6.40
2023-05-09T04:09:24.663Z,6.40
2023-05-09T04:09:55.548Z,7.00
2023-05-09T04:10:26.481Z,7.00
2023-05-09T04:10:57.439Z,6.40
2023-05-09T04:11:28.386Z,7.20
2023-05-09T04:11:59.218Z,6.40
2023-05-09T04:12:30.097Z,6.30
2023-05-09T04:13:00.961Z,6.50
2023-05-09T04:13:31.848Z,6.90
2023-05-09T04:14:02.692Z,7.10
2023-05-09T04:14:33.507Z,6.80
2023-05-09T04:15:04.385Z,6.80
2023-05-09T04:15:35.530Z,7.10
2023-05-09T04:16:06.010Z,6.90
2023-05-09T04:16:37.119Z,6.80
2023-05-09T04:17:07.706Z,6.90
2023-05-09T04:17:38.374Z,7.20
2023-05-09T04:18:08.767Z,6.40
2023-05-09T04:18:39.658Z,7.40
2023-05-09T04:19:10.538Z,6.80
2023-05-09T04:19:41.358Z,6.70
2023-05-09T04:20:12.172Z,6.20
2023-05-09T04:20:42.977Z,7.70
2023-05-09T04:21:13.823Z,6.80
2023-05-09T04:21:44.721Z,6.60
2023-05-09T04:22:15.589Z,7.40
2023-05-09T04:22:47.127Z,7.10
2023-05-09T04:23:17.786Z,7.20
2023-05-09T04:23:47.744Z,7.00
2023-05-09T04:24:18.571Z,7.40
2023-05-09T04:24:49.428Z,7.40
2023-05-09T04:25:20.246Z,7.30
2023-05-09T04:25:51.094Z,7.00
2023-05-09T04:26:21.930Z,7.30
2023-05-09T04:26:52.883Z,7.20
2023-05-09T04:27:23.793Z,7.50
2023-05-09T04:27:54.705Z,6.90
2023-05-09T04:28:25.584Z,7.00
2023-05-09T04:28:56.489Z,6.60
2023-05-09T04:29:27.377Z,7.10
2023-05-09T04:29:58.462Z,6.80
2023-05-09T04:30:28.803Z,7.30
2023-05-09T04:30:59.761Z,6.00
2023-05-09T04:31:30.700Z,7.00
2023-05-09T04:32:01.853Z,6.90
2023-05-09T04:32:32.400Z,7.20
2023-05-09T04:33:03.292Z,7.20
2023-05-09T04:33:34.272Z,7.30
2023-05-09T04:34:05.183Z,7.20
2023-05-09T04:34:36.000Z,7.00
2023-05-09T04:35:06.910Z,7.00
2023-05-09T04:35:37.784Z,6.40
2023-05-09T04:36:08.740Z,6.80
2023-05-09T04:36:39.562Z,6.20
2023-05-09T04:37:10.392Z,7.70
2023-05-09T04:37:41.264Z,6.50
2023-05-09T04:38:12.081Z,7.00
2023-05-09T04:38:42.907Z,6.80
2023-05-09T04:39:13.738Z,6.90
2023-05-09T04:39:44.554Z,6.80
2023-05-09T04:40:15.487Z,7.10
2023-05-09T04:40:46.449Z,6.80
2023-05-09T04:41:17.428Z,6.60
2023-05-09T04:41:48.329Z,7.30
2023-05-09T04:42:19.313Z,6.90
2023-05-09T04:42:50.142Z,7.10
2023-05-09T04:43:21.021Z,6.80
2023-05-09T04:43:51.897Z,7.00
2023-05-09T04:44:22.758Z,7.00
2023-05-09T04:44:53.584Z,6.70
2023-05-09T04:45:24.531Z,6.70
2023-05-09T04:45:55.373Z,6.80
2023-05-09T04:46:26.459Z,6.60
2023-05-09T04:46:57.381Z,6.70
2023-05-09T04:47:27.898Z,6.70
2023-05-09T04:47:58.681Z,6.40
2023-05-09T04:48:29.183Z,7.10
2023-05-09T04:49:00.011Z,6.70
2023-05-09T04:49:30.838Z,6.60
2023-05-09T04:50:01.694Z,7.10
2023-05-09T04:50:32.599Z,6.30
2023-05-09T04:51:03.443Z,6.70
2023-05-09T04:51:34.295Z,7.20
2023-05-09T04:52:05.233Z,6.90
2023-05-09T04:52:36.159Z,6.60
2023-05-09T04:53:07.043Z,6.30
2023-05-09T04:53:38.599Z,6.60
2023-05-09T04:54:08.530Z,7.20
2023-05-09T04:54:39.477Z,6.90
2023-05-09T04:55:10.506Z,7.20
2023-05-09T04:55:40.876Z,6.50
2023-05-09T04:56:11.742Z,6.90
2023-05-09T04:57:23.841Z,6.50
2023-05-09T04:57:54.185Z,7.10
2023-05-09T04:58:25.030Z,6.50
2023-05-09T04:58:55.910Z,6.50
2023-05-09T04:59:26.960Z,6.70
2023-05-09T04:59:57.335Z,6.60
2023-05-09T05:00:28.171Z,6.30
2023-05-09T05:00:59.000Z,6.80
2023-05-09T05:01:29.947Z,5.90
2023-05-09T05:02:00.976Z,6.80
2023-05-09T05:02:31.427Z,7.10
2023-05-09T05:03:02.401Z,7.00
2023-05-09T05:03:32.890Z,6.60
2023-05-09T05:04:04.579Z,6.40
2023-05-09T05:04:34.471Z,6.40
2023-05-09T05:05:11.535Z,7.00
2023-05-09T05:05:37.685Z,7.10
2023-05-09T05:06:06.823Z,6.40
2023-05-09T05:06:37.719Z,6.70
2023-05-09T05:07:08.584Z,6.30
2023-05-09T05:07:39.585Z,6.30
2023-05-09T05:08:10.593Z,7.40
2023-05-09T05:08:41.064Z,6.30
2023-05-09T05:09:11.951Z,5.70
2023-05-09T05:09:42.932Z,6.50
2023-05-09T05:10:13.462Z,6.20
2023-05-09T05:10:43.976Z,6.00
2023-05-09T05:11:14.804Z,6.80
2023-05-09T05:11:58.465Z,6.60
2023-05-09T05:12:17.442Z,6.30
2023-05-09T05:12:47.513Z,7.20
2023-05-09T05:13:17.973Z,6.50
2023-05-09T05:13:48.813Z,6.70
2023-05-09T05:14:19.651Z,6.40
2023-05-09T05:14:50.524Z,6.40
2023-05-09T05:15:21.492Z,6.80
2023-05-09T05:15:52.441Z,6.10
2023-05-09T05:16:22.980Z,6.80
2023-05-09T05:16:53.747Z,6.50
2023-05-09T05:17:24.683Z,7.20
2023-05-09T05:17:55.173Z,6.80
2023-05-09T05:18:26.052Z,7.50
2023-05-09T05:18:56.884Z,6.10
2023-05-09T05:19:27.798Z,6.60
2023-05-09T05:19:58.658Z,6.40
2023-05-09T05:20:29.543Z,6.70
2023-05-09T05:21:00.420Z,6.70
2023-05-09T05:21:31.562Z,6.40
2023-05-09T05:22:02.022Z,6.50
2023-05-09T05:22:33.172Z,6.20
2023-05-09T05:23:03.632Z,5.90
2023-05-09T05:23:34.733Z,6.50
2023-05-09T05:24:05.187Z,6.50
2023-05-09T05:24:36.071Z,7.20
2023-05-09T05:25:06.919Z,6.90
2023-05-09T05:25:37.785Z,6.50
2023-05-09T05:26:08.591Z,6.20
2023-05-09T05:26:39.459Z,6.60
2023-05-09T05:27:10.574Z,6.10
2023-05-09T05:27:40.971Z,6.60
2023-05-09T05:28:11.815Z,6.50
2023-05-09T05:28:42.722Z,7.00
2023-05-09T05:29:13.714Z,6.40
2023-05-09T05:29:45.388Z,6.40
2023-05-09T05:30:15.360Z,6.20
2023-05-09T05:30:46.175Z,6.60
2023-05-09T05:31:17.040Z,6.80
2023-05-09T05:31:47.999Z,6.70
2023-05-09T05:32:18.601Z,6.40
2023-05-09T05:32:49.019Z,6.20
2023-05-09T05:33:19.900Z,6.20
2023-05-09T05:33:50.972Z,6.00
2023-05-09T05:34:21.627Z,6.70
2023-05-09T05:34:52.289Z,6.70
2023-05-09T05:35:22.639Z,6.90
2023-05-09T05:35:53.593Z,6.20
2023-05-09T05:36:24.529Z,6.40
2023-05-09T05:36:56.152Z,6.30
2023-05-09T05:37:25.995Z,6.80
2023-05-09T05:37:56.824Z,6.60
2023-05-09T05:38:27.650Z,6.70
2023-05-09T05:38:58.473Z,6.50
2023-05-09T05:39:29.329Z,6.00
2023-05-09T05:40:00.199Z,6.20
2023-05-09T05:40:31.014Z,6.30
2023-05-09T05:41:01.935Z,6.10
2023-05-09T05:41:32.873Z,6.40
2023-05-09T05:42:03.767Z,6.80
2023-05-09T05:42:34.680Z,6.00
2023-05-09T05:43:05.698Z,6.30
2023-05-09T05:43:36.657Z,6.20
2023-05-09T05:44:07.462Z,6.70
2023-05-09T05:44:38.285Z,5.50
2023-05-09T05:45:09.148Z,6.20
2023-05-09T05:45:40.032Z,5.40
2023-05-09T05:46:10.964Z,5.70
2023-05-09T05:46:42.046Z,5.90
2023-05-09T05:47:12.513Z,5.90
2023-05-09T05:47:43.684Z,6.30
2023-05-09T05:48:14.186Z,6.10
2023-05-09T05:48:45.262Z,6.50
2023-05-09T05:49:15.779Z,6.20
2023-05-09T05:49:46.586Z,6.10
2023-05-09T05:50:17.420Z,6.50
2023-05-09T05:50:48.274Z,6.20
2023-05-09T05:51:19.148Z,6.50
2023-05-09T05:51:49.994Z,6.10
2023-05-09T05:52:20.867Z,6.00
2023-05-09T05:52:51.828Z,6.00
2023-05-09T05:53:22.722Z,6.40
2023-05-09T05:53:53.709Z,5.80
2023-05-09T05:54:25.289Z,5.90
2023-05-09T05:54:55.245Z,6.10
2023-05-09T05:55:26.175Z,6.10
2023-05-09T05:55:57.005Z,5.80
2023-05-09T05:56:27.827Z,6.20
2023-05-09T05:56:58.671Z,6.10
2023-05-09T05:57:29.522Z,6.20
2023-05-09T05:58:00.394Z,6.30
2023-05-09T05:58:31.256Z,6.00
2023-05-09T05:59:02.245Z,7.00
2023-05-09T05:59:33.284Z,6.50
2023-05-09T06:00:03.702Z,5.70
2023-05-09T06:00:34.601Z,5.90
2023-05-09T06:01:05.562Z,5.80
2023-05-09T06:01:36.071Z,6.30
2023-05-09T06:02:07.171Z,6.00
2023-05-09T06:02:37.772Z,6.40
2023-05-09T06:03:08.229Z,5.90
2023-05-09T06:03:39.160Z,6.10
2023-05-09T06:04:10.199Z,6.10
2023-05-09T06:04:40.790Z,6.20
2023-05-09T06:05:11.685Z,5.80
2023-05-09T06:05:42.716Z,6.50
2023-05-09T06:06:13.728Z,6.40
2023-05-09T06:06:44.710Z,5.80
2023-05-09T06:07:15.476Z,6.20
2023-05-09T06:07:46.446Z,5.90
2023-05-09T06:08:17.281Z,6.00
2023-05-09T06:08:48.125Z,6.20
2023-05-09T06:09:19.057Z,6.20
2023-05-09T06:09:49.908Z,5.50
2023-05-09T06:10:20.738Z,5.80
2023-05-09T06:10:51.580Z,6.00
2023-05-09T06:11:22.614Z,6.20
2023-05-09T06:11:53.061Z,5.90
2023-05-09T06:12:24.588Z,6.00
2023-05-09T06:12:54.931Z,6.30
2023-05-09T06:13:26.231Z,5.90
2023-05-09T06:13:56.701Z,6.20
2023-05-09T06:14:27.909Z,6.20
2023-05-09T06:14:58.246Z,5.80
2023-05-09T06:15:29.100Z,6.30
2023-05-09T06:16:15.049Z,5.90
2023-05-09T06:16:31.783Z,5.90
2023-05-09T06:17:01.724Z,6.10
2023-05-09T06:17:32.642Z,5.70
2023-05-09T06:18:03.545Z,5.80
2023-05-09T06:18:34.450Z,5.70
2023-05-09T06:19:05.640Z,6.70
2023-05-09T06:19:36.171Z,5.90
2023-05-09T06:20:06.855Z,5.60
2023-05-09T06:20:37.319Z,6.00
2023-05-09T06:21:08.141Z,5.70
2023-05-09T06:21:38.987Z,5.80
2023-05-09T06:22:09.788Z,5.70
2023-05-09T06:22:40.741Z,5.60
2023-05-09T06:23:11.587Z,5.90
2023-05-09T06:23:51.048Z,6.40
2023-05-09T06:24:23.476Z,6.40
2023-05-09T06:24:45.321Z,6.10
2023-05-09T06:25:15.021Z,6.00
2023-05-09T06:25:45.801Z,5.80
2023-05-09T06:26:16.336Z,5.50
2023-05-09T06:26:46.841Z,6.50
2023-05-09T06:27:17.798Z,6.40
2023-05-09T06:27:48.173Z,6.30
2023-05-09T06:28:19.008Z,6.00
2023-05-09T06:28:49.896Z,6.20
2023-05-09T06:29:20.749Z,6.30
2023-05-09T06:29:51.686Z,5.50
2023-05-09T06:30:26.678Z,5.60
2023-05-09T06:30:53.498Z,6.10
2023-05-09T06:31:25.700Z,6.00
2023-05-09T06:31:55.605Z,5.70
2023-05-09T06:32:26.282Z,5.50
2023-05-09T06:32:57.118Z,5.50
2023-05-09T06:33:27.662Z,6.10
2023-05-09T06:33:58.255Z,6.00
2023-05-09T06:34:28.613Z,5.80
2023-05-09T06:34:59.439Z,6.50
2023-05-09T06:35:30.390Z,6.60
2023-05-09T06:36:01.256Z,5.90
2023-05-09T06:36:32.124Z,5.80
2023-05-09T06:37:02.933Z,6.00
2023-05-09T06:37:33.862Z,5.60
2023-05-09T06:38:04.950Z,5.80
2023-05-09T06:38:35.443Z,5.80
2023-05-09T06:39:06.577Z,5.70
2023-05-09T06:39:37.037Z,5.10
2023-05-09T06:40:07.981Z,6.20
2023-05-09T06:40:38.887Z,6.10
2023-05-09T06:41:09.715Z,5.90
2023-05-09T06:41:40.600Z,6.10
2023-05-09T06:42:11.502Z,6.10
2023-05-09T06:42:42.412Z,5.40
2023-05-09T06:43:13.233Z,6.00
2023-05-09T06:43:44.056Z,5.80
2023-05-09T06:44:14.920Z,5.80
2023-05-09T06:44:45.827Z,6.20
2023-05-09T06:45:17.311Z,5.30
2023-05-09T06:45:47.618Z,5.80
2023-05-09T06:46:18.633Z,5.70
2023-05-09T06:46:49.128Z,6.50
2023-05-09T06:47:19.968Z,5.80
2023-05-09T06:47:50.835Z,5.80
2023-05-09T06:48:21.684Z,6.10
2023-05-09T06:48:52.529Z,5.50
2023-05-09T06:49:23.384Z,5.60
2023-05-09T06:49:54.387Z,5.40
2023-05-09T06:50:24.849Z,5.80
2023-05-09T06:50:55.774Z,5.90
2023-05-09T06:51:26.763Z,5.80